Time;durP1;ratioP1;P1;durP2;ratioP2;P2;SDS_P1;SDS_P2;PMS_P1;PMS_P2;Temp;Humidity;BMP_temperature;BMP_pressure;BME280_temperature;BME280_humidity;BME280_pressure;Samples;Min_cycle;Max_cycle;Signal;HPM_P1;HPM_P2
2023/08/16 00:01:11;;;;;;;9.40;9.10;;;22.80;99.90;;;;;;4959587;28;20293;-80
2023/08/16 00:03:38;;;;;;;9.63;9.32;;;22.70;99.90;;;;;;4959918;28;20250;-80
2023/08/16 00:06:12;;;;;;;9.75;9.45;;;22.70;99.90;;;;;;4960126;28;20241;-80
2023/08/16 00:08:39;;;;;;;9.90;9.60;;;22.60;99.90;;;;;;4941711;28;20245;-80
2023/08/16 00:11:07;;;;;;;9.80;9.50;;;22.60;99.90;;;;;;4972979;28;20226;-80
2023/08/16 00:13:34;;;;;;;9.60;9.30;;;22.60;99.90;;;;;;4980036;28;20289;-80
2023/08/16 00:16:02;;;;;;;9.80;9.50;;;22.50;99.90;;;;;;4979671;28;20248;-80
2023/08/16 00:18:38;;;;;;;9.60;9.30;;;22.50;99.90;;;;;;4979708;28;20237;-80
2023/08/16 00:21:05;;;;;;;9.70;9.40;;;22.40;99.90;;;;;;4972016;28;20289;-79
2023/08/16 00:23:32;;;;;;;9.70;9.40;;;22.40;99.90;;;;;;4963835;28;20235;-79
2023/08/16 00:25:59;;;;;;;9.52;9.23;;;22.40;99.90;;;;;;4980751;28;20244;-80
2023/08/16 00:28:27;;;;;;;9.85;9.55;;;22.40;99.90;;;;;;4983795;28;20245;-79
2023/08/16 00:30:54;;;;;;;9.90;9.60;;;22.30;99.90;;;;;;4989328;28;20240;-80
2023/08/16 00:33:22;;;;;;;9.52;9.23;;;22.30;99.90;;;;;;4989155;28;20269;-79
2023/08/16 00:35:52;;;;;;;9.60;9.30;;;22.20;99.90;;;;;;4988504;28;20289;-78
2023/08/16 00:38:19;;;;;;;9.38;9.07;;;22.20;99.90;;;;;;4986607;28;20229;-79
2023/08/16 00:40:48;;;;;;;9.30;9.00;;;22.10;99.90;;;;;;4980661;28;20324;-79
2023/08/16 00:43:16;;;;;;;9.35;9.05;;;22.10;99.90;;;;;;4978246;28;20341;-80
2023/08/16 00:45:44;;;;;;;8.80;8.60;;;22.10;99.90;;;;;;4979162;28;20232;-79
2023/08/16 00:48:13;;;;;;;9.30;9.00;;;22.00;99.90;;;;;;4979166;28;20232;-80
2023/08/16 00:50:40;;;;;;;9.15;8.85;;;22.00;99.90;;;;;;4979537;28;20334;-79
2023/08/16 00:53:09;;;;;;;9.20;8.90;;;21.90;99.90;;;;;;4979053;28;20232;-80
2023/08/16 00:55:37;;;;;;;9.43;9.13;;;21.90;99.90;;;;;;4978796;28;20236;-80
2023/08/16 00:58:04;;;;;;;9.05;8.75;;;21.80;99.90;;;;;;4978996;28;20241;-80
2023/08/16 01:00:32;;;;;;;9.10;8.80;;;21.80;99.90;;;;;;4978707;28;20268;-79
2023/08/16 01:02:59;;;;;;;9.00;8.70;;;21.70;99.90;;;;;;4978820;28;20321;-80
2023/08/16 01:05:27;;;;;;;8.98;8.68;;;21.60;99.90;;;;;;4977855;28;20232;-81
2023/08/16 01:07:54;;;;;;;9.10;8.80;;;21.60;99.90;;;;;;4978935;28;20332;-78
2023/08/16 01:10:45;;;;;;;9.10;8.80;;;21.50;99.90;;;;;;4978784;28;20245;-79
2023/08/16 01:13:16;;;;;;;9.23;8.93;;;21.50;99.90;;;;;;4978083;28;20312;-79
2023/08/16 01:15:48;;;;;;;9.40;9.10;;;21.50;99.90;;;;;;4978688;28;20320;-79
2023/08/16 01:18:16;;;;;;;9.30;9.00;;;21.50;99.90;;;;;;4978864;28;20235;-80
2023/08/16 01:20:46;;;;;;;9.35;9.05;;;21.50;99.90;;;;;;4979508;28;20233;-80
2023/08/16 01:23:23;;;;;;;9.30;9.00;;;21.50;99.90;;;;;;4976715;28;20296;-80
2023/08/16 01:26:05;;;;;;;9.38;9.07;;;21.50;99.90;;;;;;4976924;28;20256;-80
2023/08/16 01:28:34;;;;;;;9.32;9.02;;;21.50;99.90;;;;;;4973962;28;20240;-79
2023/08/16 01:31:05;;;;;;;9.50;9.20;;;21.40;99.90;;;;;;4962238;28;20237;-79
2023/08/16 01:33:32;;;;;;;9.30;9.00;;;21.40;99.90;;;;;;4959719;28;20242;-80
2023/08/16 01:35:59;;;;;;;9.23;8.93;;;21.40;99.90;;;;;;4958877;28;20235;-79
2023/08/16 01:38:27;;;;;;;9.40;9.10;;;21.40;99.90;;;;;;4959720;28;20312;-80
2023/08/16 01:41:01;;;;;;;9.10;8.80;;;21.30;99.90;;;;;;4959204;28;20237;-80
2023/08/16 01:43:30;;;;;;;9.13;8.82;;;21.30;99.90;;;;;;4959344;28;20246;-79
2023/08/16 01:45:59;;;;;;;9.45;9.15;;;21.30;99.90;;;;;;4958567;28;20258;-79
2023/08/16 01:48:27;;;;;;;9.30;9.00;;;21.30;99.90;;;;;;4960513;28;20244;-80
2023/08/16 01:50:54;;;;;;;9.13;8.82;;;21.20;99.90;;;;;;4960907;28;20234;-80
2023/08/16 01:53:21;;;;;;;9.20;8.90;;;21.20;99.90;;;;;;4960535;28;20238;-80
2023/08/16 01:55:48;;;;;;;9.05;8.75;;;21.20;99.90;;;;;;4967801;28;20288;-80
2023/08/16 01:58:16;;;;;;;9.30;9.00;;;21.10;99.90;;;;;;4983150;28;20235;-80
2023/08/16 02:00:43;;;;;;;9.30;9.00;;;21.00;99.90;;;;;;4974961;28;20241;-81
2023/08/16 02:03:11;;;;;;;9.20;8.90;;;21.00;99.90;;;;;;4967002;28;20241;-80
2023/08/16 02:05:38;;;;;;;9.20;8.90;;;20.90;99.90;;;;;;4971889;28;20247;-80
2023/08/16 02:08:06;;;;;;;9.10;8.80;;;21.00;99.90;;;;;;4973145;28;20231;-80
2023/08/16 02:10:32;;;;;;;9.13;8.82;;;20.90;99.90;;;;;;4963530;28;20301;-80
2023/08/16 02:12:59;;;;;;;9.50;9.20;;;20.80;99.90;;;;;;4964151;28;20238;-81
2023/08/16 02:15:27;;;;;;;9.30;9.00;;;20.80;99.90;;;;;;4963601;28;20238;-81
2023/08/16 02:17:54;;;;;;;9.30;9.00;;;20.80;99.90;;;;;;4961295;28;20244;-80
2023/08/16 02:20:22;;;;;;;9.00;8.70;;;20.80;99.90;;;;;;4961995;28;20245;-80
2023/08/16 02:22:49;;;;;;;9.20;8.90;;;20.80;99.90;;;;;;4962715;28;20238;-80
2023/08/16 02:25:16;;;;;;;9.20;8.90;;;20.80;99.90;;;;;;4962452;28;20238;-80
2023/08/16 02:27:43;;;;;;;9.30;9.00;;;20.80;99.90;;;;;;4962941;28;20238;-80
2023/08/16 02:30:11;;;;;;;9.40;9.10;;;20.70;99.90;;;;;;4962910;28;20734;-80
2023/08/16 02:32:38;;;;;;;9.27;8.98;;;20.80;99.90;;;;;;4963013;28;20298;-79
2023/08/16 02:35:05;;;;;;;9.00;8.70;;;20.70;99.90;;;;;;4962801;28;20241;-81
2023/08/16 02:37:34;;;;;;;9.10;8.80;;;20.70;99.90;;;;;;4964218;28;20325;-80
2023/08/16 02:40:01;;;;;;;9.07;8.77;;;20.70;99.90;;;;;;4964519;28;20230;-80
2023/08/16 02:42:28;;;;;;;9.05;8.75;;;20.70;99.90;;;;;;4963319;28;20234;-79
2023/08/16 02:44:55;;;;;;;8.57;8.38;;;20.60;99.90;;;;;;4962552;28;20241;-80
2023/08/16 02:47:22;;;;;;;9.07;8.77;;;20.60;99.90;;;;;;4963289;28;20236;-80
2023/08/16 02:49:49;;;;;;;9.20;8.90;;;20.50;99.90;;;;;;4963066;28;20244;-80
2023/08/16 02:52:16;;;;;;;9.10;8.80;;;20.50;99.90;;;;;;4962987;28;20313;-80
2023/08/16 02:54:44;;;;;;;9.10;8.80;;;20.50;99.90;;;;;;4963234;28;20227;-80
2023/08/16 02:57:13;;;;;;;9.20;8.90;;;20.40;99.90;;;;;;4963561;28;20238;-81
2023/08/16 02:59:41;;;;;;;9.10;8.80;;;20.40;99.90;;;;;;4963066;28;20268;-80
2023/08/16 03:02:08;;;;;;;9.00;8.70;;;20.40;99.90;;;;;;4962773;28;20234;-79
2023/08/16 03:04:38;;;;;;;8.90;8.60;;;20.40;99.90;;;;;;4963130;28;20327;-81
2023/08/16 03:07:06;;;;;;;8.70;8.50;;;20.30;99.90;;;;;;4961909;28;20248;-80
2023/08/16 03:09:34;;;;;;;9.00;8.70;;;20.40;99.90;;;;;;4963811;28;20237;-81
2023/08/16 03:12:03;;;;;;;8.98;8.68;;;20.30;99.90;;;;;;4964895;28;20332;-80
2023/08/16 03:14:30;;;;;;;8.88;8.63;;;20.30;99.90;;;;;;4964663;28;20234;-80
2023/08/16 03:16:57;;;;;;;9.07;8.77;;;20.30;99.90;;;;;;4964538;28;20266;-80
2023/08/16 03:19:24;;;;;;;9.00;8.70;;;20.30;99.90;;;;;;4962724;28;20234;-80
2023/08/16 03:21:52;;;;;;;9.18;8.88;;;20.30;99.90;;;;;;4962118;28;20230;-80
2023/08/16 03:24:19;;;;;;;9.10;8.80;;;20.20;99.90;;;;;;4964963;28;20238;-80
2023/08/16 03:26:46;;;;;;;9.27;8.98;;;20.20;99.90;;;;;;4962902;28;20252;-81
2023/08/16 03:29:15;;;;;;;9.00;8.70;;;20.20;99.90;;;;;;4963158;28;20238;-80
2023/08/16 03:31:42;;;;;;;8.80;8.50;;;20.20;99.90;;;;;;4962247;28;20241;-81
2023/08/16 03:34:09;;;;;;;8.90;8.60;;;20.10;99.90;;;;;;4962638;28;20254;-80
2023/08/16 03:36:36;;;;;;;9.15;8.85;;;20.10;99.90;;;;;;4962293;28;20245;-80
2023/08/16 03:39:05;;;;;;;9.15;8.85;;;20.10;99.90;;;;;;4962578;28;20250;-80
2023/08/16 03:41:32;;;;;;;9.35;9.05;;;20.00;99.90;;;;;;4961917;28;20321;-79
2023/08/16 03:43:59;;;;;;;9.38;9.07;;;20.00;99.90;;;;;;4961748;28;20257;-81
2023/08/16 03:46:27;;;;;;;9.70;9.40;;;20.00;99.90;;;;;;4961570;28;20301;-80
2023/08/16 03:48:54;;;;;;;9.70;9.40;;;20.00;99.90;;;;;;4963185;28;20760;-81
2023/08/16 03:51:22;;;;;;;9.70;9.40;;;20.00;99.90;;;;;;4962305;28;20252;-80
2023/08/16 03:53:49;;;;;;;9.60;9.30;;;19.90;99.90;;;;;;4962501;28;20229;-80
2023/08/16 03:56:16;;;;;;;9.70;9.40;;;19.90;99.90;;;;;;4961616;28;20297;-80
2023/08/16 03:58:43;;;;;;;9.70;9.40;;;19.90;99.90;;;;;;4962884;28;20248;-80
2023/08/16 04:01:11;;;;;;;10.00;9.70;;;19.80;99.90;;;;;;4961920;28;20242;-81
2023/08/16 04:03:39;;;;;;;9.95;9.65;;;19.80;99.90;;;;;;4962744;28;20317;-80
2023/08/16 04:06:10;;;;;;;9.98;9.68;;;19.80;99.90;;;;;;4959184;28;20810;-79
2023/08/16 04:08:37;;;;;;;9.60;9.30;;;19.70;99.90;;;;;;4960048;28;20238;-81
2023/08/16 04:11:05;;;;;;;9.80;9.50;;;19.70;99.90;;;;;;4960042;28;20250;-80
2023/08/16 04:13:32;;;;;;;9.90;9.60;;;19.70;99.90;;;;;;4961716;28;20222;-79
2023/08/16 04:15:59;;;;;;;9.80;9.50;;;19.70;99.90;;;;;;4961236;28;20248;-80
2023/08/16 04:18:27;;;;;;;9.68;9.38;;;19.70;99.90;;;;;;4961847;28;20234;-81
2023/08/16 04:20:55;;;;;;;9.50;9.20;;;19.70;99.90;;;;;;4961866;28;20260;-80
2023/08/16 04:23:23;;;;;;;9.30;9.00;;;19.70;99.90;;;;;;4961518;28;20231;-80
2023/08/16 04:25:50;;;;;;;9.30;9.00;;;19.70;99.90;;;;;;4961317;28;20324;-80
2023/08/16 04:28:17;;;;;;;9.23;8.93;;;19.70;99.90;;;;;;4961588;28;20230;-80
2023/08/16 04:30:44;;;;;;;9.30;9.00;;;19.60;99.90;;;;;;4961755;28;20248;-80
2023/08/16 04:33:11;;;;;;;9.32;9.02;;;19.60;99.90;;;;;;4969405;28;20241;-80
2023/08/16 04:35:38;;;;;;;9.30;9.00;;;19.60;99.90;;;;;;4981223;28;20304;-81
2023/08/16 04:38:09;;;;;;;9.30;9.00;;;19.70;99.90;;;;;;5004902;23;20233;-87
2023/08/16 04:40:37;;;;;;;9.20;8.90;;;19.70;99.90;;;;;;4986791;28;20233;-88
2023/08/16 04:43:04;;;;;;;9.30;9.00;;;19.70;99.90;;;;;;4997616;28;20248;-87
2023/08/16 04:45:32;;;;;;;9.52;9.23;;;19.70;99.90;;;;;;5014855;28;20236;-87
2023/08/16 04:48:00;;;;;;;9.38;9.07;;;19.70;99.90;;;;;;5013649;28;20229;-87
2023/08/16 04:50:28;;;;;;;9.68;9.38;;;19.70;99.90;;;;;;5008818;28;20258;-86
2023/08/16 04:52:56;;;;;;;9.80;9.50;;;19.70;99.90;;;;;;5013345;28;20239;-87
2023/08/16 04:55:27;;;;;;;8.93;8.63;;;19.80;99.90;;;;;;5012705;28;20229;-87
2023/08/16 04:57:54;;;;;;;8.70;8.50;;;19.80;99.90;;;;;;5008964;28;20846;-87
2023/08/16 05:00:23;;;;;;;8.90;8.60;;;19.80;99.90;;;;;;5003460;28;20259;-87
2023/08/16 05:02:50;;;;;;;8.95;8.65;;;19.90;99.90;;;;;;5004693;28;20213;-87
2023/08/16 05:05:17;;;;;;;9.00;8.70;;;19.90;99.90;;;;;;5001437;28;20240;-88
2023/08/16 05:07:45;;;;;;;9.00;8.70;;;19.90;99.90;;;;;;5002327;28;20243;-87
2023/08/16 05:10:15;;;;;;;8.90;8.60;;;20.00;99.90;;;;;;5000435;28;20239;-87
2023/08/16 05:12:44;;;;;;;8.90;8.63;;;20.00;99.90;;;;;;4999489;28;20229;-87
2023/08/16 05:15:11;;;;;;;8.38;8.18;;;20.00;99.90;;;;;;5001812;28;20233;-87
2023/08/16 05:17:39;;;;;;;8.50;8.30;;;20.10;99.90;;;;;;5000682;28;20324;-87
2023/08/16 05:20:09;;;;;;;8.38;8.18;;;20.10;99.90;;;;;;5000360;28;20241;-87
2023/08/16 05:22:36;;;;;;;8.65;8.45;;;20.10;99.90;;;;;;4994126;28;20234;-87
2023/08/16 05:25:08;;;;;;;8.70;8.50;;;20.10;99.90;;;;;;4996346;28;20245;-87
2023/08/16 05:27:35;;;;;;;8.60;8.40;;;20.10;99.90;;;;;;4999639;28;20239;-87
2023/08/16 05:30:06;;;;;;;8.68;8.48;;;20.20;99.90;;;;;;5002166;28;20251;-87
2023/08/16 05:32:34;;;;;;;8.20;8.00;;;20.20;99.90;;;;;;5003040;28;20225;-86
2023/08/16 05:35:01;;;;;;;8.40;8.20;;;20.30;99.90;;;;;;5017306;28;20217;-86
2023/08/16 05:37:29;;;;;;;8.07;7.88;;;20.40;99.90;;;;;;5022460;28;20217;-87
2023/08/16 05:39:56;;;;;;;8.20;8.00;;;20.40;99.90;;;;;;5012171;28;20264;-87
2023/08/16 05:42:26;;;;;;;8.40;8.20;;;20.50;99.90;;;;;;5005929;28;20268;-87
2023/08/16 05:44:53;;;;;;;8.30;8.10;;;20.60;99.90;;;;;;5003503;28;20236;-87
2023/08/16 05:47:22;;;;;;;8.55;8.35;;;20.70;99.90;;;;;;5002831;28;20278;-88
2023/08/16 05:49:49;;;;;;;8.88;8.60;;;20.80;99.90;;;;;;5002618;28;20252;-88
2023/08/16 05:52:18;;;;;;;8.70;8.50;;;20.80;99.90;;;;;;5002636;28;20232;-88
2023/08/16 05:54:50;;;;;;;8.88;8.60;;;20.90;99.90;;;;;;5002424;28;20315;-88
2023/08/16 05:57:18;;;;;;;8.60;8.40;;;21.00;99.90;;;;;;5004884;28;20279;-88
2023/08/16 05:59:47;;;;;;;8.68;8.48;;;21.10;99.90;;;;;;5000099;28;20237;-87
2023/08/16 06:02:14;;;;;;;8.50;8.30;;;21.10;99.90;;;;;;4994976;28;20225;-88
2023/08/16 06:04:44;;;;;;;8.73;8.52;;;21.20;99.90;;;;;;4985506;28;20238;-88
2023/08/16 06:07:11;;;;;;;8.75;8.55;;;21.30;99.90;;;;;;4988383;28;20233;-88
2023/08/16 06:09:38;;;;;;;8.75;8.55;;;21.40;99.90;;;;;;4988256;28;20281;-88
2023/08/16 06:12:10;;;;;;;9.02;8.73;;;21.50;99.90;;;;;;4983735;28;20240;-88
2023/08/16 06:14:37;;;;;;;9.13;8.82;;;21.60;99.90;;;;;;4984575;28;20243;-88
2023/08/16 06:17:05;;;;;;;9.48;9.18;;;21.70;99.90;;;;;;4981895;28;20777;-87
2023/08/16 06:19:32;;;;;;;9.60;9.30;;;21.80;99.90;;;;;;4990585;28;20253;-88
2023/08/16 06:22:02;;;;;;;9.63;9.32;;;21.80;99.90;;;;;;4999103;28;20272;-88
2023/08/16 06:24:35;;;;;;;9.88;9.57;;;21.90;99.90;;;;;;5004037;28;20261;-87
2023/08/16 06:27:04;;;;;;;10.00;9.70;;;22.00;99.90;;;;;;5010457;28;20232;-88
2023/08/16 06:29:31;;;;;;;10.00;9.70;;;22.10;99.90;;;;;;5011442;28;20240;-89
2023/08/16 06:31:59;;;;;;;10.02;9.73;;;22.20;99.90;;;;;;5020894;28;20213;-86
2023/08/16 06:34:26;;;;;;;10.10;9.80;;;22.30;99.90;;;;;;5016795;28;20236;-88
2023/08/16 06:36:54;;;;;;;9.98;9.68;;;22.30;99.90;;;;;;5005109;28;20329;-88
2023/08/16 06:39:23;;;;;;;10.20;9.90;;;22.40;99.90;;;;;;5001261;28;20244;-88
2023/08/16 06:41:50;;;;;;;10.15;9.85;;;22.60;99.90;;;;;;5001154;28;20229;-88
2023/08/16 06:44:19;;;;;;;10.15;9.85;;;22.70;99.90;;;;;;5000861;28;20296;-89
2023/08/16 06:46:46;;;;;;;10.30;10.00;;;22.70;99.90;;;;;;5000826;28;20235;-88
2023/08/16 06:49:13;;;;;;;10.23;9.93;;;22.90;99.90;;;;;;5000855;28;20296;-88
2023/08/16 06:51:40;;;;;;;10.52;10.23;;;23.00;99.90;;;;;;5000391;28;20323;-89
2023/08/16 06:54:08;;;;;;;10.27;9.98;;;23.00;99.90;;;;;;5001146;28;20236;-88
2023/08/16 06:56:37;;;;;;;10.73;10.43;;;23.10;99.90;;;;;;5001250;28;20240;-88
2023/08/16 06:59:05;;;;;;;10.50;10.20;;;23.20;99.90;;;;;;5000798;28;20237;-88
2023/08/16 07:01:33;;;;;;;10.32;10.02;;;23.20;99.90;;;;;;5000660;28;20311;-88
2023/08/16 07:04:00;;;;;;;10.43;10.13;;;23.20;99.90;;;;;;5001110;28;20256;-88
2023/08/16 07:06:30;;;;;;;10.70;10.40;;;23.20;99.90;;;;;;5001020;28;20259;-88
2023/08/16 07:08:58;;;;;;;10.55;10.25;;;23.40;99.90;;;;;;5000952;28;20244;-88
2023/08/16 07:11:25;;;;;;;10.65;10.35;;;23.50;99.90;;;;;;5000074;28;20232;-88
2023/08/16 07:13:54;;;;;;;10.65;10.35;;;23.60;99.90;;;;;;5000114;28;20228;-88
2023/08/16 07:16:21;;;;;;;10.60;10.30;;;23.70;99.90;;;;;;5000194;28;20264;-88
2023/08/16 07:18:48;;;;;;;10.40;10.10;;;23.90;99.90;;;;;;5000245;28;20240;-88
2023/08/16 07:21:15;;;;;;;10.38;10.07;;;24.00;99.90;;;;;;4999815;28;20292;-88
2023/08/16 07:23:44;;;;;;;10.48;10.18;;;24.10;99.90;;;;;;5000172;28;20236;-88
2023/08/16 07:26:11;;;;;;;10.60;10.30;;;24.10;99.90;;;;;;5000421;28;20240;-88
2023/08/16 07:28:39;;;;;;;10.73;10.43;;;24.20;99.90;;;;;;5000220;28;20229;-89
2023/08/16 07:31:08;;;;;;;10.77;10.48;;;24.30;99.90;;;;;;4999798;28;20231;-88
2023/08/16 07:33:35;;;;;;;10.90;10.60;;;24.40;99.90;;;;;;5000579;28;20287;-88
2023/08/16 07:36:03;;;;;;;10.70;10.40;;;24.40;99.90;;;;;;5000106;28;20284;-89
2023/08/16 07:38:32;;;;;;;10.73;10.43;;;24.50;99.90;;;;;;5005319;28;20229;-88
2023/08/16 07:41:00;;;;;;;10.93;10.63;;;24.50;99.90;;;;;;5002940;28;20300;-88
2023/08/16 07:43:29;;;;;;;10.93;10.63;;;24.70;99.90;;;;;;5000889;28;20240;-89
2023/08/16 07:46:01;;;;;;;10.95;10.65;;;24.70;99.90;;;;;;5001148;28;20239;-89
2023/08/16 07:48:30;;;;;;;11.05;10.75;;;24.80;99.90;;;;;;5004730;28;20240;-88
2023/08/16 07:50:57;;;;;;;10.88;10.57;;;24.80;99.90;;;;;;4999994;28;20237;-88
2023/08/16 07:53:24;;;;;;;10.90;10.60;;;24.90;99.90;;;;;;4999455;28;20232;-88
2023/08/16 07:55:52;;;;;;;10.88;10.57;;;25.00;99.90;;;;;;5000514;28;20260;-88
2023/08/16 07:58:20;;;;;;;10.90;10.60;;;25.00;99.90;;;;;;5000572;28;20236;-88
2023/08/16 08:00:53;;;;;;;10.90;10.60;;;25.10;99.90;;;;;;5000361;28;20229;-88
2023/08/16 08:03:21;;;;;;;10.80;10.50;;;25.10;99.90;;;;;;4999914;28;20241;-90
2023/08/16 08:05:50;;;;;;;10.85;10.55;;;25.20;99.90;;;;;;5000005;28;20233;-90
2023/08/16 08:08:17;;;;;;;10.88;10.57;;;25.30;99.90;;;;;;4988446;28;20265;-90
2023/08/16 08:10:45;;;;;;;10.98;10.68;;;25.30;99.90;;;;;;4981241;28;20222;-90
2023/08/16 08:13:15;;;;;;;10.95;10.65;;;25.40;99.90;;;;;;4985327;28;20231;-90
2023/08/16 08:15:42;;;;;;;10.93;10.63;;;25.50;99.90;;;;;;5001032;28;20216;-84
2023/08/16 08:18:10;;;;;;;11.10;10.80;;;25.50;99.90;;;;;;4999353;28;20240;-87
2023/08/16 08:20:38;;;;;;;10.95;10.65;;;25.60;99.90;;;;;;4999606;28;20327;-84
2023/08/16 08:23:07;;;;;;;11.00;10.70;;;25.70;99.90;;;;;;4990963;28;20236;-85
2023/08/16 08:25:34;;;;;;;11.20;10.90;;;25.80;99.90;;;;;;5000676;28;20236;-84
2023/08/16 08:28:01;;;;;;;10.77;10.48;;;25.90;99.90;;;;;;5000529;28;20248;-89
2023/08/16 08:30:28;;;;;;;10.95;10.65;;;26.00;99.90;;;;;;5001441;28;20228;-86
2023/08/16 08:32:58;;;;;;;10.93;10.63;;;26.00;99.90;;;;;;5000876;28;20300;-84
2023/08/16 08:39:15;;;;;;;11.70;11.30;;;26.40;99.90;;;;;;5237447;23;20441;-91
2023/08/16 08:41:43;;;;;;;11.27;10.98;;;26.70;99.90;;;;;;4987840;28;20534;-90
2023/08/16 08:44:18;;;;;;;11.18;10.88;;;27.00;99.90;;;;;;4982342;28;20245;-90
2023/08/16 08:46:54;;;;;;;11.27;10.98;;;27.20;99.90;;;;;;4981123;28;20276;-89
2023/08/16 08:49:27;;;;;;;11.20;10.90;;;27.30;99.90;;;;;;4979583;28;20340;-89
2023/08/16 08:51:55;;;;;;;11.10;10.80;;;27.40;99.90;;;;;;4979482;28;20231;-86
2023/08/16 08:54:28;;;;;;;10.98;10.68;;;27.50;99.90;;;;;;4979426;28;20260;-89
2023/08/16 08:57:05;;;;;;;11.13;10.82;;;27.40;99.90;;;;;;4979802;28;20229;-90
2023/08/16 08:59:53;;;;;;;11.07;10.77;;;27.60;99.90;;;;;;4978981;28;20730;-90
2023/08/16 09:02:21;;;;;;;10.77;10.48;;;28.00;99.90;;;;;;4979556;28;20237;-90
2023/08/16 09:05:02;;;;;;;10.98;10.68;;;28.30;99.90;;;;;;4981066;28;20237;-90
2023/08/16 09:07:36;;;;;;;11.00;10.70;;;28.50;99.90;;;;;;4983137;28;20233;-90
2023/08/16 09:10:07;;;;;;;11.02;10.73;;;28.90;99.90;;;;;;4982481;28;20251;-89
2023/08/16 09:12:34;;;;;;;11.10;10.80;;;29.00;99.90;;;;;;4993390;28;20263;-89
2023/08/16 09:15:03;;;;;;;10.93;10.63;;;29.10;99.90;;;;;;5001971;28;20247;-89
2023/08/16 09:17:31;;;;;;;10.95;10.65;;;29.10;99.90;;;;;;4991407;28;20248;-90
2023/08/16 09:20:01;;;;;;;11.15;10.85;;;29.40;99.90;;;;;;4982955;28;20240;-90
2023/08/16 09:22:30;;;;;;;10.93;10.63;;;29.90;99.90;;;;;;4982983;28;20225;-87
2023/08/16 09:24:58;;;;;;;10.90;10.60;;;30.40;99.90;;;;;;4982670;28;20229;-89
2023/08/16 09:27:28;;;;;;;10.90;10.60;;;30.60;99.90;;;;;;4982223;28;20241;-91
2023/08/16 09:29:55;;;;;;;11.00;10.70;;;30.50;99.90;;;;;;4982321;28;20230;-89
2023/08/16 09:32:30;;;;;;;11.10;10.80;;;30.20;99.90;;;;;;4985961;28;20244;-88
2023/08/16 09:36:04;;;;;;;11.40;11.10;;;30.10;99.90;;;;;;4983643;28;20248;-84
2023/08/16 09:42:59;;;;;;;11.35;11.05;;;30.20;99.90;;;;;;4999731;28;20236;-83
2023/08/16 09:45:33;;;;;;;10.60;10.30;;;30.50;99.90;;;;;;5008123;28;20276;-89
2023/08/16 09:48:01;;;;;;;10.18;9.88;;;30.40;99.90;;;;;;5006496;28;20232;-88
2023/08/16 09:50:33;;;;;;;10.40;10.10;;;30.60;99.90;;;;;;5001732;28;20252;-89
2023/08/16 09:53:01;;;;;;;10.43;10.13;;;30.80;99.90;;;;;;5003365;28;20236;-88
2023/08/16 09:55:38;;;;;;;10.52;10.23;;;31.00;99.90;;;;;;5004894;28;20224;-86
2023/08/16 09:58:08;;;;;;;10.93;10.63;;;30.90;99.90;;;;;;5003174;28;20232;-84
2023/08/16 10:00:36;;;;;;;10.57;10.27;;;30.80;99.90;;;;;;5003140;28;20228;-83
2023/08/16 10:03:08;;;;;;;10.20;9.90;;;30.60;99.90;;;;;;5001320;28;20229;-84
2023/08/16 10:05:38;;;;;;;10.43;10.13;;;30.60;99.90;;;;;;5001242;28;20237;-84
2023/08/16 10:08:10;;;;;;;10.70;10.40;;;30.80;99.90;;;;;;5000895;28;20260;-84
2023/08/16 10:10:53;;;;;;;10.75;10.45;;;31.10;99.90;;;;;;5002393;28;20233;-82
2023/08/16 10:13:23;;;;;;;10.75;10.45;;;31.40;99.90;;;;;;5000640;28;20240;-85
2023/08/16 10:15:55;;;;;;;10.80;10.50;;;31.40;99.90;;;;;;5002686;28;20217;-84
2023/08/16 10:18:29;;;;;;;10.80;10.50;;;31.50;99.90;;;;;;4967186;28;20257;-85
2023/08/16 10:21:05;;;;;;;11.50;11.10;;;31.60;99.90;;;;;;4990202;28;20232;-85
2023/08/16 10:23:45;;;;;;;11.38;11.05;;;31.40;99.90;;;;;;4996131;28;20324;-83
2023/08/16 10:26:39;;;;;;;11.18;10.88;;;31.40;99.90;;;;;;4999160;28;20232;-84
2023/08/16 10:40:04;;;;;;;11.15;10.85;;;32.10;99.90;;;;;;5159935;23;20229;-82
2023/08/16 10:42:36;;;;;;;11.27;10.98;;;32.10;99.90;;;;;;4994753;28;20257;-81
2023/08/16 10:45:05;;;;;;;11.18;10.88;;;32.00;99.90;;;;;;4998040;28;20230;-82
2023/08/16 10:47:34;;;;;;;11.15;10.85;;;31.90;99.90;;;;;;4986914;28;20229;-81
2023/08/16 10:50:03;;;;;;;11.20;10.90;;;31.90;99.90;;;;;;4987492;28;20325;-82
2023/08/16 10:52:33;;;;;;;10.70;10.40;;;31.90;99.90;;;;;;4982835;28;20342;-81
2023/08/16 10:55:04;;;;;;;10.63;10.32;;;31.70;99.90;;;;;;4984485;28;20265;-82
2023/08/16 10:57:35;;;;;;;10.60;10.30;;;31.30;99.90;;;;;;4983922;28;20232;-82
2023/08/16 11:00:08;;;;;;;10.90;10.60;;;31.30;99.90;;;;;;4991369;28;20365;-81
2023/08/16 11:02:37;;;;;;;10.95;10.65;;;31.50;99.90;;;;;;4993348;28;20234;-79
2023/08/16 11:05:05;;;;;;;10.80;10.50;;;31.90;99.90;;;;;;4994067;28;20266;-80
2023/08/16 11:07:32;;;;;;;10.52;10.23;;;32.00;99.90;;;;;;4992821;28;20233;-80
2023/08/16 11:10:01;;;;;;;10.48;10.18;;;32.20;99.90;;;;;;4984440;28;20237;-79
2023/08/16 11:12:31;;;;;;;10.55;10.25;;;32.20;99.90;;;;;;4983925;28;20329;-80
2023/08/16 11:15:02;;;;;;;10.50;10.20;;;32.60;99.90;;;;;;4985764;28;20238;-80
2023/08/16 11:17:30;;;;;;;10.70;10.40;;;32.50;99.90;;;;;;4994476;28;20230;-80
2023/08/16 11:20:05;;;;;;;10.70;10.40;;;32.60;99.90;;;;;;4984330;28;20229;-81
2023/08/16 11:22:32;;;;;;;10.70;10.40;;;32.90;99.90;;;;;;4990842;28;20236;-79
2023/08/16 11:25:01;;;;;;;10.70;10.40;;;32.90;99.90;;;;;;4983099;28;20240;-80
2023/08/16 11:27:28;;;;;;;10.55;10.25;;;32.80;99.90;;;;;;4988907;28;20276;-79
2023/08/16 11:29:59;;;;;;;10.60;10.30;;;32.70;99.90;;;;;;4984164;28;20297;-80
2023/08/16 11:32:38;;;;;;;10.60;10.30;;;32.10;99.90;;;;;;4983563;28;20237;-79
2023/08/16 11:35:11;;;;;;;10.48;10.18;;;32.10;99.90;;;;;;4991080;28;20236;-81
2023/08/16 11:37:40;;;;;;;10.50;10.20;;;31.90;99.90;;;;;;4994271;28;20221;-80
2023/08/16 11:40:10;;;;;;;10.50;10.20;;;31.90;99.90;;;;;;4985819;28;20225;-80
2023/08/16 11:42:37;;;;;;;10.70;10.40;;;31.90;99.90;;;;;;4988754;28;20316;-79
2023/08/16 11:45:18;;;;;;;10.50;10.20;;;31.90;99.90;;;;;;4982901;28;20297;-80
2023/08/16 11:47:51;;;;;;;10.52;10.23;;;31.80;99.90;;;;;;4977128;28;20248;-80
2023/08/16 11:50:18;;;;;;;10.80;10.50;;;31.60;99.90;;;;;;4992181;28;20285;-81
2023/08/16 11:52:57;;;;;;;10.82;10.52;;;31.50;99.90;;;;;;4986213;28;20251;-81
2023/08/16 11:55:25;;;;;;;10.75;10.45;;;31.40;99.90;;;;;;4992528;28;20232;-81
2023/08/16 11:57:53;;;;;;;10.60;10.30;;;31.10;99.90;;;;;;4984200;28;20229;-81
2023/08/16 12:00:29;;;;;;;10.60;10.30;;;30.90;99.90;;;;;;4983161;28;20235;-81
2023/08/16 12:02:57;;;;;;;10.60;10.30;;;30.90;99.90;;;;;;4987464;28;20233;-82
2023/08/16 12:05:25;;;;;;;10.60;10.30;;;30.90;99.90;;;;;;4981799;28;20244;-81
2023/08/16 12:07:52;;;;;;;10.50;10.20;;;30.90;99.90;;;;;;4984975;28;20232;-80
2023/08/16 12:10:24;;;;;;;10.50;10.20;;;30.90;99.90;;;;;;4989599;28;20233;-80
2023/08/16 12:12:52;;;;;;;10.77;10.48;;;30.90;99.90;;;;;;4978577;28;20337;-80
2023/08/16 12:15:35;;;;;;;10.77;10.48;;;30.90;99.90;;;;;;5136501;27;20557;-80
2023/08/16 12:18:02;;;;;;;10.60;10.30;;;30.90;99.90;;;;;;5114996;27;20239;-80
2023/08/16 12:20:29;;;;;;;10.52;10.23;;;31.00;99.90;;;;;;5103546;27;20230;-80
2023/08/16 12:22:58;;;;;;;10.48;10.18;;;31.10;99.90;;;;;;5095993;28;20225;-78
2023/08/16 12:25:25;;;;;;;10.50;10.20;;;31.10;99.90;;;;;;5095739;28;20222;-80
2023/08/16 12:27:53;;;;;;;10.40;10.10;;;31.30;99.90;;;;;;5095790;28;20272;-80
2023/08/16 12:30:20;;;;;;;10.40;10.10;;;31.00;99.90;;;;;;5095785;28;20261;-80
2023/08/16 12:32:49;;;;;;;10.68;10.38;;;31.20;99.90;;;;;;5096647;28;20245;-81
2023/08/16 12:35:16;;;;;;;10.60;10.30;;;31.30;99.90;;;;;;5099717;28;20233;-80
2023/08/16 12:37:43;;;;;;;10.45;10.15;;;31.50;99.90;;;;;;5092794;28;20442;-78
2023/08/16 12:40:13;;;;;;;10.65;10.35;;;31.50;99.90;;;;;;5092830;28;20229;-78
2023/08/16 12:42:41;;;;;;;10.50;10.20;;;31.40;99.90;;;;;;5093819;28;20257;-79
2023/08/16 12:45:10;;;;;;;10.63;10.32;;;31.10;99.90;;;;;;5105955;28;20233;-79
2023/08/16 12:47:37;;;;;;;10.65;10.35;;;31.30;99.90;;;;;;5101739;27;20235;-80
2023/08/16 12:50:08;;;;;;;10.77;10.48;;;31.40;99.90;;;;;;5093941;28;20244;-79
2023/08/16 12:52:35;;;;;;;10.68;10.38;;;31.50;99.90;;;;;;5085688;28;20229;-79
2023/08/16 12:55:02;;;;;;;10.93;10.63;;;31.80;99.90;;;;;;5091195;28;20304;-78
2023/08/16 12:57:30;;;;;;;10.90;10.60;;;32.10;99.90;;;;;;5092166;28;20287;-79
2023/08/16 12:59:58;;;;;;;11.20;10.90;;;32.40;99.90;;;;;;5092090;28;20372;-80
2023/08/16 13:02:25;;;;;;;11.13;10.82;;;32.40;99.90;;;;;;5090349;28;20255;-78
2023/08/16 13:04:52;;;;;;;11.10;10.80;;;32.40;99.90;;;;;;5090437;28;20226;-79
2023/08/16 13:07:21;;;;;;;11.20;10.90;;;32.70;99.90;;;;;;5094243;28;20293;-79